createdAt,value
2018-07-26T00:00:21.016Z,13.67
2018-07-26T00:02:48.617Z,14.67
2018-07-26T00:05:16.178Z,15.37
2018-07-26T00:07:43.789Z,16.83
2018-07-26T00:10:11.439Z,16.00
2018-07-26T00:12:39.041Z,20.07
2018-07-26T00:15:07.467Z,17.30
2018-07-26T00:17:35.829Z,17.70
2018-07-26T00:20:03.409Z,19.53
2018-07-26T00:22:30.991Z,15.63
2018-07-26T00:24:58.539Z,20.23
2018-07-26T00:27:26.149Z,20.87
2018-07-26T00:29:53.649Z,20.23
2018-07-26T00:32:21.211Z,21.73
2018-07-26T00:34:48.779Z,19.10
2018-07-26T00:37:16.361Z,16.63
2018-07-26T00:39:43.937Z,16.50
2018-07-26T00:42:11.517Z,19.00
2018-07-26T00:44:39.158Z,20.73
2018-07-26T00:47:06.737Z,18.37
2018-07-26T00:49:34.341Z,16.73
2018-07-26T00:52:01.929Z,21.10
2018-07-26T00:54:29.543Z,24.70
2018-07-26T00:56:57.021Z,20.60
2018-07-26T00:59:24.548Z,17.57
2018-07-26T01:01:52.138Z,21.33
2018-07-26T01:04:19.704Z,19.60
2018-07-26T01:06:47.248Z,20.93
2018-07-26T01:09:14.791Z,21.30
2018-07-26T01:11:42.428Z,21.50
2018-07-26T01:14:10.027Z,18.40
2018-07-26T01:16:37.496Z,22.83
2018-07-26T01:19:05.205Z,17.73
2018-07-26T01:21:32.895Z,16.43
2018-07-26T01:24:00.454Z,16.53
2018-07-26T01:26:28.144Z,17.73
2018-07-26T01:28:55.726Z,25.23
2018-07-26T01:31:23.342Z,28.13
2018-07-26T01:33:51.278Z,21.43
2018-07-26T01:36:18.838Z,18.93
2018-07-26T01:38:46.394Z,17.93
2018-07-26T01:41:14.026Z,23.10
2018-07-26T01:43:53.099Z,19.03
2018-07-26T01:46:21.906Z,18.67
2018-07-26T01:48:49.541Z,18.03
2018-07-26T01:51:17.219Z,19.73
2018-07-26T01:53:45.137Z,22.80
2018-07-26T01:56:12.794Z,21.93
2018-07-26T01:58:40.344Z,24.33
2018-07-26T02:01:09.096Z,20.83
2018-07-26T02:03:43.424Z,26.17
2018-07-26T02:06:11.014Z,19.93
2018-07-26T02:08:38.602Z,23.03
2018-07-26T02:11:06.280Z,25.17
2018-07-26T02:13:34.058Z,22.63
2018-07-26T02:16:01.692Z,22.80
2018-07-26T02:18:29.301Z,24.73
2018-07-26T02:20:56.914Z,20.43
2018-07-26T02:23:24.806Z,24.03
2018-07-26T02:25:52.711Z,19.00
2018-07-26T02:28:20.299Z,28.60
2018-07-26T02:30:47.898Z,18.03
2018-07-26T02:33:15.511Z,21.90
2018-07-26T02:35:43.292Z,19.87
2018-07-26T02:38:11.212Z,22.00
2018-07-26T02:40:38.835Z,19.07
2018-07-26T02:43:06.961Z,27.17
2018-07-26T02:45:34.612Z,19.40
2018-07-26T02:48:02.172Z,19.20
2018-07-26T02:50:29.813Z,16.90
2018-07-26T02:52:57.383Z,18.60
2018-07-26T02:55:25.006Z,24.43
2018-07-26T02:57:52.768Z,17.53
2018-07-26T03:00:20.395Z,26.83
2018-07-26T03:02:48.003Z,19.40
2018-07-26T03:05:15.537Z,21.00
2018-07-26T03:07:43.138Z,22.67
2018-07-26T03:10:10.811Z,21.33
2018-07-26T03:12:38.365Z,19.80
2018-07-26T03:15:06.653Z,23.20
2018-07-26T03:17:34.249Z,20.97
2018-07-26T03:20:02.004Z,24.63
2018-07-26T03:22:29.698Z,21.43
2018-07-26T03:24:57.363Z,22.07
2018-07-26T03:27:25.005Z,19.60
2018-07-26T03:29:52.611Z,23.90
2018-07-26T03:32:20.222Z,24.37
2018-07-26T03:34:47.804Z,23.57
2018-07-26T03:37:15.450Z,28.73
2018-07-26T03:39:43.068Z,23.07
2018-07-26T03:42:10.822Z,26.07
2018-07-26T03:44:38.402Z,25.03
2018-07-26T03:47:06.128Z,21.60
2018-07-26T03:49:33.674Z,21.87
2018-07-26T03:52:01.334Z,18.50
2018-07-26T03:54:28.930Z,21.40
2018-07-26T03:56:56.530Z,18.57
2018-07-26T03:59:24.198Z,15.37
2018-07-26T04:01:51.748Z,15.80
2018-07-26T04:04:19.336Z,17.80
2018-07-26T04:06:46.866Z,18.20
2018-07-26T04:09:15.140Z,15.23
2018-07-26T04:11:44.011Z,16.10
2018-07-26T04:14:11.619Z,16.23
2018-07-26T04:16:39.286Z,16.30
2018-07-26T04:19:07.802Z,16.93
2018-07-26T04:21:35.415Z,15.30
2018-07-26T04:24:03.009Z,16.00
2018-07-26T04:26:30.594Z,16.67
2018-07-26T04:28:58.162Z,16.50
2018-07-26T04:31:25.838Z,15.37
2018-07-26T04:33:53.376Z,17.60
2018-07-26T04:36:20.898Z,17.27
2018-07-26T04:38:48.588Z,19.43
2018-07-26T04:41:16.208Z,24.93
2018-07-26T04:43:43.798Z,15.57
2018-07-26T04:46:11.445Z,20.70
2018-07-26T04:48:38.994Z,17.50
2018-07-26T04:51:06.592Z,21.93
2018-07-26T04:53:34.462Z,19.10
2018-07-26T04:56:02.008Z,16.90
2018-07-26T04:58:29.808Z,24.90
2018-07-26T05:00:57.442Z,18.17
2018-07-26T05:03:25.868Z,23.80
2018-07-26T05:05:53.421Z,23.50
2018-07-26T05:08:20.969Z,18.07
2018-07-26T05:10:48.604Z,21.47
2018-07-26T05:13:16.150Z,20.53
2018-07-26T05:15:43.784Z,20.90
2018-07-26T05:18:11.365Z,20.47
2018-07-26T05:20:38.903Z,24.17
2018-07-26T05:23:06.823Z,21.20
2018-07-26T05:25:34.394Z,23.33
2018-07-26T05:28:02.728Z,20.13
2018-07-26T05:30:30.437Z,19.10
2018-07-26T05:32:58.050Z,18.63
2018-07-26T05:35:25.658Z,16.27
2018-07-26T05:37:53.202Z,19.93
2018-07-26T05:40:20.861Z,20.37
2018-07-26T05:42:48.436Z,18.63
2018-07-26T05:45:16.063Z,17.03
2018-07-26T05:47:43.669Z,19.30
2018-07-26T05:50:11.285Z,27.23
2018-07-26T05:52:39.015Z,20.63
2018-07-26T05:55:07.329Z,19.90
2018-07-26T05:57:35.080Z,17.70
2018-07-26T06:00:02.749Z,17.17
2018-07-26T06:02:30.261Z,15.80
2018-07-26T06:04:57.793Z,20.20
2018-07-26T06:07:25.375Z,14.33
2018-07-26T06:09:53.037Z,15.13
2018-07-26T06:12:20.594Z,17.70
2018-07-26T06:14:48.173Z,19.13
2018-07-26T06:17:15.747Z,12.83
2018-07-26T06:19:43.268Z,18.97
2018-07-26T06:22:10.819Z,15.90
2018-07-26T06:24:39.040Z,15.10
2018-07-26T06:27:06.626Z,12.73
2018-07-26T06:29:34.169Z,21.10
2018-07-26T06:32:01.741Z,13.13
2018-07-26T06:34:35.959Z,11.27
2018-07-26T06:37:03.553Z,11.20
2018-07-26T06:39:31.174Z,10.80
2018-07-26T06:41:58.750Z,10.00
2018-07-26T06:44:26.350Z,17.30
2018-07-26T06:46:53.988Z,20.70
2018-07-26T06:49:21.564Z,11.60
2018-07-26T06:51:49.124Z,22.47
2018-07-26T06:54:16.702Z,18.77
2018-07-26T06:56:44.334Z,12.97
2018-07-26T06:59:11.954Z,14.70
2018-07-26T07:01:39.678Z,14.60
2018-07-26T07:04:07.615Z,13.63
2018-07-26T07:06:35.249Z,13.23
2018-07-26T07:09:03.732Z,12.73
2018-07-26T07:11:31.349Z,20.77
2018-07-26T07:13:58.896Z,13.43
2018-07-26T07:16:26.512Z,16.87
2018-07-26T07:18:54.067Z,13.73
2018-07-26T07:21:21.651Z,14.13
2018-07-26T07:23:49.364Z,19.93
2018-07-26T07:26:16.947Z,11.13
2018-07-26T07:28:44.554Z,12.37
2018-07-26T07:31:12.218Z,15.97
2018-07-26T07:33:39.773Z,20.13
2018-07-26T07:36:07.374Z,14.30
2018-07-26T07:38:34.995Z,15.80
2018-07-26T07:41:02.644Z,11.83
2018-07-26T07:43:30.202Z,26.10
2018-07-26T07:45:57.776Z,19.63
2018-07-26T07:48:25.356Z,19.37
2018-07-26T07:50:52.906Z,20.33
2018-07-26T07:53:20.467Z,17.87
2018-07-26T07:55:48.056Z,22.13
2018-07-26T07:58:15.743Z,18.20
2018-07-26T08:00:43.269Z,21.40
2018-07-26T08:03:11.401Z,17.80
2018-07-26T08:05:38.965Z,15.50
2018-07-26T08:10:40.893Z,21.13
2018-07-26T08:13:08.485Z,19.03
2018-07-26T08:15:36.088Z,17.40
2018-07-26T08:18:03.677Z,21.60
2018-07-26T08:20:31.304Z,17.60
2018-07-26T08:22:58.911Z,16.20
2018-07-26T08:25:26.478Z,16.67
2018-07-26T08:28:00.625Z,17.00
2018-07-26T08:30:28.260Z,19.77
2018-07-26T08:32:55.852Z,19.93
2018-07-26T08:35:23.529Z,18.40
2018-07-26T08:37:51.117Z,24.23
2018-07-26T08:40:18.731Z,20.90
2018-07-26T08:42:46.312Z,20.63
2018-07-26T08:45:13.892Z,17.33
2018-07-26T08:47:41.444Z,18.97
2018-07-26T08:50:09.286Z,17.40
2018-07-26T08:52:37.260Z,14.03
2018-07-26T08:55:04.946Z,17.30
2018-07-26T08:57:32.689Z,25.40
2018-07-26T09:00:00.296Z,17.53
2018-07-26T09:02:27.990Z,16.40
2018-07-26T09:04:55.608Z,19.53
2018-07-26T09:07:23.182Z,17.87
2018-07-26T09:09:50.901Z,10.07
2018-07-26T09:12:18.513Z,10.33
2018-07-26T09:14:46.090Z,8.07
2018-07-26T09:17:13.751Z,8.53
2018-07-26T09:19:41.454Z,12.37
2018-07-26T09:22:09.005Z,22.53
2018-07-26T09:24:39.858Z,9.60
2018-07-26T09:27:07.514Z,10.50
2018-07-26T09:29:35.136Z,8.93
2018-07-26T09:32:02.817Z,9.17
2018-07-26T09:34:30.409Z,11.10
2018-07-26T09:36:58.000Z,6.90
2018-07-26T09:39:25.602Z,6.63
2018-07-26T09:41:53.195Z,10.97
2018-07-26T09:44:20.669Z,11.90
2018-07-26T09:46:48.274Z,14.40
2018-07-26T09:49:15.833Z,9.97
2018-07-26T09:51:43.433Z,9.13
2018-07-26T09:54:11.011Z,8.30
2018-07-26T09:56:38.763Z,10.50
2018-07-26T09:59:06.329Z,8.30
2018-07-26T10:01:35.412Z,8.73
2018-07-26T10:04:03.108Z,12.00
2018-07-26T10:06:30.654Z,22.10
2018-07-26T10:08:58.248Z,10.70
2018-07-26T10:11:26.704Z,10.73
2018-07-26T10:13:56.084Z,10.47
2018-07-26T10:16:23.796Z,11.80
2018-07-26T10:18:51.501Z,6.47
2018-07-26T10:21:19.336Z,9.70
2018-07-26T10:23:46.942Z,8.03
2018-07-26T10:26:14.551Z,14.23
2018-07-26T10:28:42.145Z,7.93
2018-07-26T10:31:09.713Z,7.33
2018-07-26T10:33:37.313Z,9.07
2018-07-26T10:36:05.148Z,8.93
2018-07-26T10:38:32.743Z,10.03
2018-07-26T10:41:00.353Z,13.40
2018-07-26T10:43:27.957Z,10.30
2018-07-26T10:45:55.596Z,7.60
2018-07-26T10:48:23.223Z,7.93
2018-07-26T10:50:50.797Z,6.10
2018-07-26T10:53:18.409Z,9.70
2018-07-26T10:55:46.066Z,13.90
2018-07-26T10:58:13.628Z,10.10
2018-07-26T11:00:41.440Z,12.43
2018-07-26T11:03:09.043Z,6.73
2018-07-26T11:05:36.666Z,6.57
2018-07-26T11:08:04.289Z,8.50
2018-07-26T11:10:31.869Z,8.27
2018-07-26T11:12:59.464Z,8.90
2018-07-26T11:15:29.353Z,7.90
2018-07-26T11:17:57.149Z,6.20
2018-07-26T11:20:24.748Z,6.40
2018-07-26T11:22:52.314Z,14.20
2018-07-26T11:25:19.904Z,5.53
2018-07-26T11:27:47.540Z,7.57
2018-07-26T11:30:15.097Z,6.90
2018-07-26T11:32:42.726Z,6.33
2018-07-26T11:35:10.990Z,9.10
2018-07-26T11:37:38.673Z,11.83
2018-07-26T11:40:06.284Z,7.20
2018-07-26T11:42:33.864Z,6.13
2018-07-26T11:45:01.580Z,7.73
2018-07-26T11:47:29.196Z,12.13
2018-07-26T11:49:56.796Z,8.43
2018-07-26T11:52:24.416Z,9.27
2018-07-26T11:54:51.993Z,6.70
2018-07-26T11:57:19.530Z,6.93
2018-07-26T11:59:47.120Z,10.83
2018-07-26T12:02:14.797Z,8.70
2018-07-26T12:04:42.545Z,5.00
2018-07-26T12:07:10.090Z,5.67
2018-07-26T12:09:38.433Z,5.00
2018-07-26T12:12:06.086Z,6.40
2018-07-26T12:14:33.678Z,5.00
2018-07-26T12:17:01.293Z,6.17
2018-07-26T12:19:28.881Z,9.83
2018-07-26T12:21:56.429Z,7.50
2018-07-26T12:24:24.112Z,5.70
2018-07-26T12:26:51.896Z,6.93
2018-07-26T12:29:19.461Z,5.87
2018-07-26T12:31:47.025Z,9.80
2018-07-26T12:34:14.577Z,6.37
2018-07-26T12:36:42.245Z,7.10
2018-07-26T12:39:11.454Z,8.50
2018-07-26T12:41:39.089Z,11.33
2018-07-26T12:44:06.983Z,6.93
2018-07-26T12:46:34.836Z,11.23
2018-07-26T12:49:02.539Z,5.20
2018-07-26T12:51:30.122Z,5.37
2018-07-26T12:53:58.303Z,7.20
2018-07-26T12:56:25.957Z,4.90
2018-07-26T12:58:53.607Z,4.80
2018-07-26T13:01:21.221Z,8.50
2018-07-26T13:03:48.856Z,7.70
2018-07-26T13:06:16.434Z,5.77
2018-07-26T13:08:44.077Z,4.63
2018-07-26T13:11:11.628Z,5.27
2018-07-26T13:13:39.260Z,5.50
2018-07-26T13:16:06.893Z,5.13
2018-07-26T13:18:34.491Z,5.30
2018-07-26T13:21:02.204Z,7.90
2018-07-26T13:23:29.932Z,3.70
2018-07-26T13:25:57.522Z,4.40
2018-07-26T13:28:25.094Z,4.40
2018-07-26T13:30:52.759Z,5.93
2018-07-26T13:33:20.315Z,4.50
2018-07-26T13:35:47.910Z,4.10
2018-07-26T13:38:15.493Z,4.17
2018-07-26T13:40:43.132Z,8.07
2018-07-26T13:43:10.712Z,8.70
2018-07-26T13:45:38.284Z,4.87
2018-07-26T13:48:05.994Z,5.93
2018-07-26T13:50:33.538Z,7.00
2018-07-26T13:53:01.176Z,6.63
2018-07-26T13:55:28.752Z,4.90
2018-07-26T13:57:56.320Z,6.13
2018-07-26T14:00:23.915Z,5.47
2018-07-26T14:02:51.505Z,12.23
2018-07-26T14:05:19.078Z,3.83
2018-07-26T14:07:46.687Z,9.43
2018-07-26T14:10:14.325Z,6.30
2018-07-26T14:12:42.066Z,4.80
2018-07-26T14:15:10.384Z,3.20
2018-07-26T14:17:38.238Z,7.80
2018-07-26T14:20:07.311Z,5.47
2018-07-26T14:22:34.924Z,3.90
2018-07-26T14:25:02.556Z,4.10
2018-07-26T14:27:30.199Z,7.57
2018-07-26T14:29:58.130Z,4.17
2018-07-26T14:32:25.679Z,5.00
2018-07-26T14:34:53.219Z,4.20
2018-07-26T14:37:20.911Z,3.90
2018-07-26T14:39:48.502Z,4.03
2018-07-26T14:42:16.072Z,4.50
2018-07-26T14:44:43.655Z,4.30
2018-07-26T14:47:11.335Z,8.70
2018-07-26T14:49:38.887Z,3.67
2018-07-26T14:52:06.778Z,3.10
2018-07-26T14:54:34.513Z,5.40
2018-07-26T14:57:02.129Z,5.30
2018-07-26T14:59:29.657Z,7.20
2018-07-26T15:01:57.289Z,4.50
2018-07-26T15:04:24.868Z,6.07
2018-07-26T15:06:52.437Z,5.53
2018-07-26T15:09:26.696Z,4.17
2018-07-26T15:11:54.275Z,10.03
2018-07-26T15:14:21.864Z,3.63
2018-07-26T15:16:49.525Z,4.50
2018-07-26T15:19:17.089Z,6.57
2018-07-26T15:21:44.684Z,6.33
2018-07-26T15:24:12.292Z,4.10
2018-07-26T15:26:39.879Z,5.33
2018-07-26T15:29:07.443Z,4.50
2018-07-26T15:31:35.016Z,4.13
2018-07-26T15:34:02.594Z,6.80
2018-07-26T15:36:30.173Z,4.33
2018-07-26T15:38:57.792Z,3.87
2018-07-26T15:41:25.485Z,8.00
2018-07-26T15:43:59.662Z,23.60
2018-07-26T15:46:27.272Z,5.67
2018-07-26T15:48:54.862Z,7.23
2018-07-26T15:51:22.441Z,4.77
2018-07-26T15:53:50.070Z,9.93
2018-07-26T15:56:17.685Z,4.60
2018-07-26T15:58:45.336Z,7.90
2018-07-26T16:01:12.988Z,7.40
2018-07-26T16:03:40.660Z,5.80
2018-07-26T16:06:08.341Z,4.90
2018-07-26T16:08:35.910Z,6.53
2018-07-26T16:11:03.485Z,18.23
2018-07-26T16:13:31.114Z,10.43
2018-07-26T16:15:58.754Z,4.10
2018-07-26T16:18:26.376Z,6.33
2018-07-26T16:20:54.094Z,5.70
2018-07-26T16:23:21.689Z,6.67
2018-07-26T16:25:49.272Z,3.77
2018-07-26T16:28:16.879Z,6.07
2018-07-26T16:30:44.551Z,8.27
2018-07-26T16:33:12.125Z,5.50
2018-07-26T16:35:39.707Z,5.57
2018-07-26T16:38:07.283Z,6.20
2018-07-26T16:40:34.956Z,4.73
2018-07-26T16:43:02.570Z,5.27
2018-07-26T16:45:30.104Z,4.10
2018-07-26T16:47:57.645Z,5.37
2018-07-26T16:50:25.240Z,4.63
2018-07-26T16:52:52.878Z,6.33
2018-07-26T16:55:20.475Z,7.33
2018-07-26T16:57:48.116Z,4.73
2018-07-26T17:00:15.734Z,8.57
2018-07-26T17:02:43.535Z,9.23
2018-07-26T17:05:11.141Z,4.73
2018-07-26T17:07:38.770Z,6.17
2018-07-26T17:10:07.155Z,6.13
2018-07-26T17:12:34.785Z,8.00
2018-07-26T17:15:04.765Z,10.17
2018-07-26T17:17:32.373Z,7.27
2018-07-26T17:19:59.913Z,7.13
2018-07-26T17:22:34.244Z,9.77
2018-07-26T17:25:01.776Z,5.70
2018-07-26T17:27:29.517Z,8.20
2018-07-26T17:29:57.031Z,8.77
2018-07-26T17:32:24.724Z,5.80
2018-07-26T17:34:53.432Z,7.87
2018-07-26T17:37:21.132Z,8.93
2018-07-26T17:39:48.732Z,8.97
2018-07-26T17:42:16.463Z,6.47
2018-07-26T17:44:44.236Z,7.40
2018-07-26T17:47:12.028Z,9.37
2018-07-26T17:49:39.602Z,10.93
2018-07-26T17:52:07.237Z,11.10
2018-07-26T17:54:34.824Z,6.63
2018-07-26T17:57:02.487Z,8.73
2018-07-26T17:59:30.097Z,17.73
2018-07-26T18:01:57.659Z,9.57
2018-07-26T18:04:25.247Z,7.93
2018-07-26T18:06:52.757Z,6.40
2018-07-26T18:09:20.318Z,8.17
2018-07-26T18:11:47.992Z,9.53
2018-07-26T18:14:15.563Z,5.97
2018-07-26T18:16:43.262Z,14.53
2018-07-26T18:19:10.850Z,8.77
2018-07-26T18:21:38.449Z,7.20
2018-07-26T18:24:06.448Z,5.37
2018-07-26T18:26:34.251Z,5.30
2018-07-26T18:29:01.837Z,6.70
2018-07-26T18:31:29.448Z,6.43
2018-07-26T18:33:57.024Z,7.37
2018-07-26T18:36:24.597Z,6.87
2018-07-26T18:38:52.281Z,6.83
2018-07-26T18:41:19.937Z,6.17
2018-07-26T18:43:47.594Z,8.77
2018-07-26T18:46:15.283Z,8.23
2018-07-26T18:48:43.050Z,6.60
2018-07-26T18:51:10.682Z,4.40
2018-07-26T18:53:38.360Z,5.93
2018-07-26T18:56:06.009Z,4.43
2018-07-26T18:58:33.677Z,7.67
2018-07-26T19:01:01.308Z,7.37
2018-07-26T19:03:28.937Z,8.20
2018-07-26T19:05:56.615Z,7.03
2018-07-26T19:08:24.284Z,5.80
2018-07-26T19:10:51.935Z,7.50
2018-07-26T19:13:19.680Z,7.63
2018-07-26T19:15:47.359Z,7.37
2018-07-26T19:18:15.115Z,8.53
2018-07-26T19:20:43.124Z,6.53
2018-07-26T19:23:11.533Z,7.43
2018-07-26T19:25:39.524Z,7.37
2018-07-26T19:28:07.348Z,9.57
2018-07-26T19:30:35.054Z,6.27
2018-07-26T19:33:02.717Z,4.83
2018-07-26T19:35:30.422Z,8.40
2018-07-26T19:37:58.173Z,8.17
2018-07-26T19:40:25.797Z,6.63
2018-07-26T19:42:53.555Z,12.27
2018-07-26T19:45:21.309Z,12.40
2018-07-26T19:47:49.003Z,11.73
2018-07-26T19:50:16.681Z,12.10
2018-07-26T19:52:44.563Z,12.20
2018-07-26T19:55:12.444Z,18.30
2018-07-26T19:57:41.126Z,18.07
2018-07-26T20:00:09.416Z,7.73
2018-07-26T20:02:38.029Z,14.90
2018-07-26T20:05:05.901Z,8.67
2018-07-26T20:07:33.547Z,15.73
2018-07-26T20:10:01.351Z,11.00
2018-07-26T20:12:29.054Z,8.17
2018-07-26T20:14:56.703Z,16.90
2018-07-26T20:17:24.523Z,17.60
2018-07-26T20:19:52.166Z,11.37
2018-07-26T20:22:20.262Z,11.47
2018-07-26T20:24:48.012Z,9.13
2018-07-26T20:27:15.692Z,11.53
2018-07-26T20:29:43.353Z,8.70
2018-07-26T20:32:11.034Z,7.70
2018-07-26T20:34:38.747Z,8.37
2018-07-26T20:37:06.398Z,11.30
2018-07-26T20:39:34.006Z,11.57
2018-07-26T20:42:01.718Z,7.20
2018-07-26T20:44:29.340Z,9.10
2018-07-26T20:46:57.110Z,8.60
2018-07-26T20:49:24.723Z,14.43
2018-07-26T20:51:52.366Z,11.67
2018-07-26T20:54:20.233Z,7.80
2018-07-26T20:56:47.731Z,8.47
2018-07-26T20:59:15.376Z,9.43
2018-07-26T21:01:42.929Z,10.80
2018-07-26T21:04:10.529Z,9.13
2018-07-26T21:06:38.129Z,9.70
2018-07-26T21:09:07.987Z,10.80
2018-07-26T21:11:35.562Z,10.40
2018-07-26T21:14:03.190Z,11.13
2018-07-26T21:16:30.752Z,11.70
2018-07-26T21:18:58.423Z,11.73
2018-07-26T21:21:26.007Z,10.37
2018-07-26T21:23:53.562Z,8.50
2018-07-26T21:26:21.073Z,10.20
2018-07-26T21:28:48.625Z,8.07
2018-07-26T21:31:16.243Z,11.93
2018-07-26T21:33:43.869Z,12.50
2018-07-26T21:36:11.433Z,14.00
2018-07-26T21:38:38.980Z,9.30
2018-07-26T21:41:06.631Z,7.93
2018-07-26T21:43:34.183Z,11.03
2018-07-26T21:46:01.763Z,12.30
2018-07-26T21:48:29.357Z,8.23
2018-07-26T21:50:56.933Z,10.20
2018-07-26T21:53:24.500Z,8.40
2018-07-26T21:55:52.099Z,8.70
2018-07-26T21:58:19.753Z,9.63
2018-07-26T22:00:52.888Z,11.37
2018-07-26T22:03:20.457Z,8.53
2018-07-26T22:05:48.022Z,7.77
2018-07-26T22:08:15.643Z,8.80
2018-07-26T22:10:43.233Z,8.50
2018-07-26T22:13:10.867Z,11.90
2018-07-26T22:15:38.453Z,10.70
2018-07-26T22:18:06.055Z,8.37
2018-07-26T22:20:33.696Z,7.37
2018-07-26T22:23:01.327Z,14.30
2018-07-26T22:25:28.816Z,11.10
2018-07-26T22:27:56.565Z,10.03
2018-07-26T22:30:24.174Z,9.63
2018-07-26T22:32:51.738Z,10.40
2018-07-26T22:35:19.413Z,13.10
2018-07-26T22:37:47.016Z,9.87
2018-07-26T22:40:14.589Z,9.40
2018-07-26T22:42:42.177Z,14.23
2018-07-26T22:45:09.772Z,7.53
2018-07-26T22:47:37.630Z,9.23
2018-07-26T22:50:05.527Z,6.53
2018-07-26T22:52:33.108Z,9.67
2018-07-26T22:55:00.694Z,9.30
2018-07-26T22:57:28.184Z,7.80
2018-07-26T22:59:55.725Z,7.20
2018-07-26T23:02:23.310Z,9.60
2018-07-26T23:04:50.868Z,7.10
2018-07-26T23:07:18.460Z,8.10
2018-07-26T23:09:45.943Z,7.40
2018-07-26T23:12:13.539Z,7.83
2018-07-26T23:14:41.100Z,9.80
2018-07-26T23:17:08.677Z,7.47
2018-07-26T23:19:36.259Z,8.23
2018-07-26T23:22:03.842Z,8.00
2018-07-26T23:24:31.391Z,9.30
2018-07-26T23:26:58.957Z,9.33
2018-07-26T23:29:26.485Z,9.30
2018-07-26T23:31:54.125Z,6.17
2018-07-26T23:34:21.699Z,8.13
2018-07-26T23:36:49.271Z,9.60
2018-07-26T23:39:16.831Z,7.70
2018-07-26T23:41:44.374Z,7.73
2018-07-26T23:44:11.983Z,9.67
2018-07-26T23:46:39.601Z,7.70
2018-07-26T23:49:07.061Z,8.23
2018-07-26T23:51:34.613Z,11.10
2018-07-26T23:54:02.209Z,13.47
2018-07-26T23:56:29.788Z,8.37
2018-07-26T23:58:57.356Z,6.27
